sensor_id;sensor_type;location;lat;lon;timestamp;P1;durP1;ratioP1;P2;durP2;ratioP2
55031;SDS011;40928;51.076;7.950;2023-09-07T00:00:20;4.00;;;2.33;;
55031;SDS011;40928;51.076;7.950;2023-09-07T00:02:46;4.85;;;2.03;;
55031;SDS011;40928;51.076;7.950;2023-09-07T00:05:11;4.50;;;2.63;;
55031;SDS011;40928;51.076;7.950;2023-09-07T00:07:38;5.60;;;2.53;;
55031;SDS011;40928;51.076;7.950;2023-09-07T00:10:04;6.18;;;2.38;;
55031;SDS011;40928;51.076;7.950;2023-09-07T00:12:30;4.60;;;2.20;;
55031;SDS011;40928;51.076;7.950;2023-09-07T00:14:57;5.68;;;2.47;;
55031;SDS011;40928;51.076;7.950;2023-09-07T00:17:23;6.40;;;2.60;;
55031;SDS011;40928;51.076;7.950;2023-09-07T00:19:48;5.40;;;2.30;;
55031;SDS011;40928;51.076;7.950;2023-09-07T00:22:16;9.23;;;3.30;;
55031;SDS011;40928;51.076;7.950;2023-09-07T00:24:42;5.30;;;3.20;;
55031;SDS011;40928;51.076;7.950;2023-09-07T00:27:08;4.60;;;3.10;;
55031;SDS011;40928;51.076;7.950;2023-09-07T00:29:36;9.10;;;3.88;;
55031;SDS011;40928;51.076;7.950;2023-09-07T00:32:01;7.55;;;4.32;;
55031;SDS011;40928;51.076;7.950;2023-09-07T00:34:27;11.40;;;5.70;;
55031;SDS011;40928;51.076;7.950;2023-09-07T00:36:53;8.95;;;5.55;;
55031;SDS011;40928;51.076;7.950;2023-09-07T00:39:18;13.07;;;5.25;;
55031;SDS011;40928;51.076;7.950;2023-09-07T00:41:44;12.07;;;6.25;;
55031;SDS011;40928;51.076;7.950;2023-09-07T00:44:09;11.75;;;6.47;;
55031;SDS011;40928;51.076;7.950;2023-09-07T00:46:35;8.80;;;5.50;;
55031;SDS011;40928;51.076;7.950;2023-09-07T00:49:02;8.70;;;5.60;;
55031;SDS011;40928;51.076;7.950;2023-09-07T00:51:29;9.05;;;4.90;;
55031;SDS011;40928;51.076;7.950;2023-09-07T00:53:56;6.20;;;4.68;;
55031;SDS011;40928;51.076;7.950;2023-09-07T00:56:23;7.22;;;4.72;;
55031;SDS011;40928;51.076;7.950;2023-09-07T00:58:52;9.38;;;4.57;;
55031;SDS011;40928;51.076;7.950;2023-09-07T01:01:20;5.32;;;3.58;;
55031;SDS011;40928;51.076;7.950;2023-09-07T01:03:48;5.93;;;3.72;;
55031;SDS011;40928;51.076;7.950;2023-09-07T01:06:26;5.45;;;3.70;;
55031;SDS011;40928;51.076;7.950;2023-09-07T01:08:56;6.63;;;3.67;;
55031;SDS011;40928;51.076;7.950;2023-09-07T01:11:26;7.32;;;3.00;;
55031;SDS011;40928;51.076;7.950;2023-09-07T01:13:52;6.40;;;3.00;;
55031;SDS011;40928;51.076;7.950;2023-09-07T01:16:19;4.95;;;3.00;;
55031;SDS011;40928;51.076;7.950;2023-09-07T01:18:46;6.75;;;3.50;;
55031;SDS011;40928;51.076;7.950;2023-09-07T01:21:13;4.63;;;3.15;;
55031;SDS011;40928;51.076;7.950;2023-09-07T01:23:40;5.50;;;2.72;;
55031;SDS011;40928;51.076;7.950;2023-09-07T01:26:07;9.00;;;3.22;;
55031;SDS011;40928;51.076;7.950;2023-09-07T01:28:34;5.30;;;3.35;;
55031;SDS011;40928;51.076;7.950;2023-09-07T01:31:02;7.45;;;3.53;;
55031;SDS011;40928;51.076;7.950;2023-09-07T01:33:28;7.20;;;3.45;;
55031;SDS011;40928;51.076;7.950;2023-09-07T01:35:54;7.15;;;3.13;;
55031;SDS011;40928;51.076;7.950;2023-09-07T01:38:21;7.65;;;3.10;;
55031;SDS011;40928;51.076;7.950;2023-09-07T01:40:47;10.30;;;3.38;;
55031;SDS011;40928;51.076;7.950;2023-09-07T01:43:12;7.15;;;3.85;;
55031;SDS011;40928;51.076;7.950;2023-09-07T01:45:38;5.97;;;3.03;;
55031;SDS011;40928;51.076;7.950;2023-09-07T01:48:13;4.93;;;3.25;;
55031;SDS011;40928;51.076;7.950;2023-09-07T01:50:39;4.88;;;3.25;;
55031;SDS011;40928;51.076;7.950;2023-09-07T01:53:05;5.10;;;2.95;;
55031;SDS011;40928;51.076;7.950;2023-09-07T01:55:31;9.00;;;3.33;;
55031;SDS011;40928;51.076;7.950;2023-09-07T01:57:59;9.73;;;3.13;;
55031;SDS011;40928;51.076;7.950;2023-09-07T02:00:25;9.32;;;3.58;;
55031;SDS011;40928;51.076;7.950;2023-09-07T02:02:51;4.68;;;3.40;;
55031;SDS011;40928;51.076;7.950;2023-09-07T02:05:16;5.78;;;3.17;;
55031;SDS011;40928;51.076;7.950;2023-09-07T02:07:43;10.05;;;3.20;;
55031;SDS011;40928;51.076;7.950;2023-09-07T02:10:09;9.82;;;4.03;;
55031;SDS011;40928;51.076;7.950;2023-09-07T02:12:35;7.00;;;3.22;;
55031;SDS011;40928;51.076;7.950;2023-09-07T02:15:02;6.43;;;2.80;;
55031;SDS011;40928;51.076;7.950;2023-09-07T02:17:29;7.00;;;3.28;;
55031;SDS011;40928;51.076;7.950;2023-09-07T02:19:55;7.20;;;2.45;;
55031;SDS011;40928;51.076;7.950;2023-09-07T02:22:21;4.78;;;3.00;;
55031;SDS011;40928;51.076;7.950;2023-09-07T02:24:47;5.03;;;2.90;;
55031;SDS011;40928;51.076;7.950;2023-09-07T02:27:13;6.07;;;2.88;;
55031;SDS011;40928;51.076;7.950;2023-09-07T02:29:39;5.53;;;3.70;;
55031;SDS011;40928;51.076;7.950;2023-09-07T02:32:06;7.82;;;4.00;;
55031;SDS011;40928;51.076;7.950;2023-09-07T02:34:32;6.40;;;3.53;;
55031;SDS011;40928;51.076;7.950;2023-09-07T02:37:02;7.65;;;4.00;;
55031;SDS011;40928;51.076;7.950;2023-09-07T02:39:28;7.90;;;3.90;;
55031;SDS011;40928;51.076;7.950;2023-09-07T02:41:54;5.53;;;3.83;;
55031;SDS011;40928;51.076;7.950;2023-09-07T02:44:20;9.60;;;4.47;;
55031;SDS011;40928;51.076;7.950;2023-09-07T02:46:45;7.93;;;3.90;;
55031;SDS011;40928;51.076;7.950;2023-09-07T02:49:12;10.52;;;3.83;;
55031;SDS011;40928;51.076;7.950;2023-09-07T02:51:37;11.65;;;3.53;;
55031;SDS011;40928;51.076;7.950;2023-09-07T02:54:04;5.13;;;3.28;;
55031;SDS011;40928;51.076;7.950;2023-09-07T02:56:31;9.10;;;3.42;;
55031;SDS011;40928;51.076;7.950;2023-09-07T02:58:57;6.40;;;3.65;;
55031;SDS011;40928;51.076;7.950;2023-09-07T03:01:22;5.07;;;3.30;;
55031;SDS011;40928;51.076;7.950;2023-09-07T03:03:49;6.20;;;3.17;;
55031;SDS011;40928;51.076;7.950;2023-09-07T03:06:15;5.32;;;2.78;;
55031;SDS011;40928;51.076;7.950;2023-09-07T03:08:48;4.95;;;2.67;;
55031;SDS011;40928;51.076;7.950;2023-09-07T03:11:14;5.20;;;3.50;;
55031;SDS011;40928;51.076;7.950;2023-09-07T03:13:40;6.75;;;3.25;;
55031;SDS011;40928;51.076;7.950;2023-09-07T03:16:08;4.35;;;3.20;;
55031;SDS011;40928;51.076;7.950;2023-09-07T03:18:34;8.57;;;3.35;;
55031;SDS011;40928;51.076;7.950;2023-09-07T03:21:00;8.70;;;3.47;;
55031;SDS011;40928;51.076;7.950;2023-09-07T03:23:31;8.02;;;3.60;;
55031;SDS011;40928;51.076;7.950;2023-09-07T03:25:58;6.10;;;3.90;;
55031;SDS011;40928;51.076;7.950;2023-09-07T03:28:24;6.47;;;3.50;;
55031;SDS011;40928;51.076;7.950;2023-09-07T03:30:51;8.45;;;3.47;;
55031;SDS011;40928;51.076;7.950;2023-09-07T03:33:17;7.13;;;3.50;;
55031;SDS011;40928;51.076;7.950;2023-09-07T03:35:43;9.27;;;4.43;;
55031;SDS011;40928;51.076;7.950;2023-09-07T03:38:10;6.63;;;4.03;;
55031;SDS011;40928;51.076;7.950;2023-09-07T03:40:36;8.48;;;4.60;;
55031;SDS011;40928;51.076;7.950;2023-09-07T03:43:02;8.60;;;3.78;;
55031;SDS011;40928;51.076;7.950;2023-09-07T03:45:28;5.25;;;4.03;;
55031;SDS011;40928;51.076;7.950;2023-09-07T03:47:54;11.20;;;4.57;;
55031;SDS011;40928;51.076;7.950;2023-09-07T03:50:20;5.22;;;4.10;;
55031;SDS011;40928;51.076;7.950;2023-09-07T03:52:47;6.60;;;4.25;;
55031;SDS011;40928;51.076;7.950;2023-09-07T03:55:13;7.90;;;4.75;;
55031;SDS011;40928;51.076;7.950;2023-09-07T03:57:39;5.38;;;3.83;;
55031;SDS011;40928;51.076;7.950;2023-09-07T04:00:06;9.65;;;4.40;;
55031;SDS011;40928;51.076;7.950;2023-09-07T04:02:38;8.60;;;5.45;;
55031;SDS011;40928;51.076;7.950;2023-09-07T04:05:04;12.20;;;6.28;;
55031;SDS011;40928;51.076;7.950;2023-09-07T04:07:31;12.00;;;6.18;;
55031;SDS011;40928;51.076;7.950;2023-09-07T04:09:57;14.18;;;8.75;;
55031;SDS011;40928;51.076;7.950;2023-09-07T04:12:22;13.10;;;7.20;;
55031;SDS011;40928;51.076;7.950;2023-09-07T04:14:48;14.13;;;7.30;;
55031;SDS011;40928;51.076;7.950;2023-09-07T04:17:13;16.00;;;8.70;;
55031;SDS011;40928;51.076;7.950;2023-09-07T04:19:39;13.52;;;8.00;;
55031;SDS011;40928;51.076;7.950;2023-09-07T04:22:05;13.15;;;7.78;;
55031;SDS011;40928;51.076;7.950;2023-09-07T04:24:31;15.18;;;7.53;;
55031;SDS011;40928;51.076;7.950;2023-09-07T04:27:00;11.50;;;7.75;;
55031;SDS011;40928;51.076;7.950;2023-09-07T04:29:26;10.77;;;6.43;;
55031;SDS011;40928;51.076;7.950;2023-09-07T04:31:52;7.90;;;5.80;;
55031;SDS011;40928;51.076;7.950;2023-09-07T04:34:18;9.68;;;6.05;;
55031;SDS011;40928;51.076;7.950;2023-09-07T04:36:46;6.30;;;4.72;;
55031;SDS011;40928;51.076;7.950;2023-09-07T04:39:12;8.30;;;5.40;;
55031;SDS011;40928;51.076;7.950;2023-09-07T04:41:39;8.43;;;4.78;;
55031;SDS011;40928;51.076;7.950;2023-09-07T04:44:05;8.05;;;5.10;;
55031;SDS011;40928;51.076;7.950;2023-09-07T04:46:31;8.30;;;5.53;;
55031;SDS011;40928;51.076;7.950;2023-09-07T04:48:57;7.10;;;4.70;;
55031;SDS011;40928;51.076;7.950;2023-09-07T04:51:22;9.05;;;4.72;;
55031;SDS011;40928;51.076;7.950;2023-09-07T04:53:50;10.25;;;4.03;;
55031;SDS011;40928;51.076;7.950;2023-09-07T04:56:16;8.88;;;4.30;;
55031;SDS011;40928;51.076;7.950;2023-09-07T04:58:42;7.03;;;4.88;;
55031;SDS011;40928;51.076;7.950;2023-09-07T05:01:10;8.07;;;4.68;;
55031;SDS011;40928;51.076;7.950;2023-09-07T05:03:37;8.35;;;4.20;;
55031;SDS011;40928;51.076;7.950;2023-09-07T05:06:06;10.45;;;4.38;;
55031;SDS011;40928;51.076;7.950;2023-09-07T05:08:32;9.00;;;4.10;;
55031;SDS011;40928;51.076;7.950;2023-09-07T05:10:58;9.48;;;5.25;;
55031;SDS011;40928;51.076;7.950;2023-09-07T05:13:25;6.38;;;4.15;;
55031;SDS011;40928;51.076;7.950;2023-09-07T05:15:52;8.15;;;4.30;;
55031;SDS011;40928;51.076;7.950;2023-09-07T05:18:19;10.15;;;4.10;;
55031;SDS011;40928;51.076;7.950;2023-09-07T05:20:44;9.30;;;4.75;;
55031;SDS011;40928;51.076;7.950;2023-09-07T05:23:15;6.63;;;4.80;;
55031;SDS011;40928;51.076;7.950;2023-09-07T05:25:43;5.25;;;3.92;;
55031;SDS011;40928;51.076;7.950;2023-09-07T05:28:15;7.22;;;4.75;;
55031;SDS011;40928;51.076;7.950;2023-09-07T05:30:42;8.35;;;5.20;;
55031;SDS011;40928;51.076;7.950;2023-09-07T05:33:13;8.45;;;5.25;;
55031;SDS011;40928;51.076;7.950;2023-09-07T05:35:41;8.40;;;4.90;;
55031;SDS011;40928;51.076;7.950;2023-09-07T05:38:11;17.67;;;5.13;;
55031;SDS011;40928;51.076;7.950;2023-09-07T05:40:48;10.02;;;4.13;;
55031;SDS011;40928;51.076;7.950;2023-09-07T05:43:20;6.30;;;4.82;;
55031;SDS011;40928;51.076;7.950;2023-09-07T05:45:47;8.35;;;4.63;;
55031;SDS011;40928;51.076;7.950;2023-09-07T05:48:13;9.30;;;4.85;;
55031;SDS011;40928;51.076;7.950;2023-09-07T05:50:40;8.63;;;4.60;;
55031;SDS011;40928;51.076;7.950;2023-09-07T05:53:05;6.88;;;4.90;;
55031;SDS011;40928;51.076;7.950;2023-09-07T05:55:32;7.85;;;4.82;;
55031;SDS011;40928;51.076;7.950;2023-09-07T05:57:59;8.55;;;4.45;;
55031;SDS011;40928;51.076;7.950;2023-09-07T06:00:26;5.20;;;3.72;;
55031;SDS011;40928;51.076;7.950;2023-09-07T06:02:52;5.57;;;3.75;;
55031;SDS011;40928;51.076;7.950;2023-09-07T06:05:18;5.38;;;3.95;;
55031;SDS011;40928;51.076;7.950;2023-09-07T06:07:44;6.20;;;4.18;;
55031;SDS011;40928;51.076;7.950;2023-09-07T06:10:11;7.57;;;4.03;;
55031;SDS011;40928;51.076;7.950;2023-09-07T06:12:37;5.25;;;3.83;;
55031;SDS011;40928;51.076;7.950;2023-09-07T06:15:03;6.50;;;4.05;;
55031;SDS011;40928;51.076;7.950;2023-09-07T06:17:29;4.50;;;3.50;;
55031;SDS011;40928;51.076;7.950;2023-09-07T06:19:55;5.70;;;3.63;;
55031;SDS011;40928;51.076;7.950;2023-09-07T06:22:21;5.40;;;3.35;;
55031;SDS011;40928;51.076;7.950;2023-09-07T06:24:49;7.22;;;4.25;;
55031;SDS011;40928;51.076;7.950;2023-09-07T06:27:15;4.72;;;3.42;;
55031;SDS011;40928;51.076;7.950;2023-09-07T06:29:40;4.53;;;3.25;;
55031;SDS011;40928;51.076;7.950;2023-09-07T06:32:06;4.10;;;3.17;;
55031;SDS011;40928;51.076;7.950;2023-09-07T06:34:31;5.57;;;2.97;;
55031;SDS011;40928;51.076;7.950;2023-09-07T06:36:57;5.65;;;3.47;;
55031;SDS011;40928;51.076;7.950;2023-09-07T06:39:23;4.75;;;3.08;;
55031;SDS011;40928;51.076;7.950;2023-09-07T06:41:48;5.18;;;3.65;;
55031;SDS011;40928;51.076;7.950;2023-09-07T06:44:16;4.50;;;3.22;;
55031;SDS011;40928;51.076;7.950;2023-09-07T06:46:43;4.78;;;3.38;;
55031;SDS011;40928;51.076;7.950;2023-09-07T06:49:08;5.43;;;3.55;;
55031;SDS011;40928;51.076;7.950;2023-09-07T06:51:34;4.68;;;3.35;;
55031;SDS011;40928;51.076;7.950;2023-09-07T06:54:00;10.65;;;5.45;;
55031;SDS011;40928;51.076;7.950;2023-09-07T06:56:26;6.18;;;3.53;;
55031;SDS011;40928;51.076;7.950;2023-09-07T06:58:52;4.85;;;3.38;;
55031;SDS011;40928;51.076;7.950;2023-09-07T07:01:18;6.18;;;3.25;;
55031;SDS011;40928;51.076;7.950;2023-09-07T07:03:44;8.43;;;3.90;;
55031;SDS011;40928;51.076;7.950;2023-09-07T07:06:11;6.00;;;3.38;;
55031;SDS011;40928;51.076;7.950;2023-09-07T07:08:37;7.00;;;4.18;;
55031;SDS011;40928;51.076;7.950;2023-09-07T07:11:02;12.77;;;3.38;;
55031;SDS011;40928;51.076;7.950;2023-09-07T07:13:29;4.93;;;3.50;;
55031;SDS011;40928;51.076;7.950;2023-09-07T07:15:56;4.05;;;3.08;;
55031;SDS011;40928;51.076;7.950;2023-09-07T07:18:21;6.97;;;3.58;;
55031;SDS011;40928;51.076;7.950;2023-09-07T07:20:48;4.07;;;3.22;;
55031;SDS011;40928;51.076;7.950;2023-09-07T07:23:16;4.72;;;3.08;;
55031;SDS011;40928;51.076;7.950;2023-09-07T07:25:42;5.03;;;3.20;;
55031;SDS011;40928;51.076;7.950;2023-09-07T07:28:08;5.68;;;3.25;;
55031;SDS011;40928;51.076;7.950;2023-09-07T07:30:34;7.07;;;4.13;;
55031;SDS011;40928;51.076;7.950;2023-09-07T07:33:02;5.63;;;3.50;;
55031;SDS011;40928;51.076;7.950;2023-09-07T07:35:32;7.10;;;3.22;;
55031;SDS011;40928;51.076;7.950;2023-09-07T07:37:58;6.25;;;3.03;;
55031;SDS011;40928;51.076;7.950;2023-09-07T07:40:24;7.20;;;3.33;;
55031;SDS011;40928;51.076;7.950;2023-09-07T07:42:51;6.82;;;3.22;;
55031;SDS011;40928;51.076;7.950;2023-09-07T07:45:19;4.20;;;2.90;;
55031;SDS011;40928;51.076;7.950;2023-09-07T07:47:45;5.40;;;3.13;;
55031;SDS011;40928;51.076;7.950;2023-09-07T07:50:12;4.13;;;2.90;;
55031;SDS011;40928;51.076;7.950;2023-09-07T07:52:38;5.22;;;2.83;;
55031;SDS011;40928;51.076;7.950;2023-09-07T07:55:04;6.72;;;3.17;;
55031;SDS011;40928;51.076;7.950;2023-09-07T07:57:31;3.75;;;2.63;;
55031;SDS011;40928;51.076;7.950;2023-09-07T07:59:57;3.13;;;2.38;;
55031;SDS011;40928;51.076;7.950;2023-09-07T08:02:23;3.75;;;2.65;;
55031;SDS011;40928;51.076;7.950;2023-09-07T08:04:49;9.55;;;2.92;;
55031;SDS011;40928;51.076;7.950;2023-09-07T08:07:15;3.80;;;2.63;;
55031;SDS011;40928;51.076;7.950;2023-09-07T08:09:40;3.55;;;2.60;;
55031;SDS011;40928;51.076;7.950;2023-09-07T08:12:06;5.88;;;2.90;;
55031;SDS011;40928;51.076;7.950;2023-09-07T08:14:33;4.60;;;2.83;;
55031;SDS011;40928;51.076;7.950;2023-09-07T08:17:01;4.35;;;3.17;;
55031;SDS011;40928;51.076;7.950;2023-09-07T08:19:27;5.07;;;2.88;;
55031;SDS011;40928;51.076;7.950;2023-09-07T08:21:53;5.28;;;2.53;;
55031;SDS011;40928;51.076;7.950;2023-09-07T08:24:19;5.25;;;2.80;;
55031;SDS011;40928;51.076;7.950;2023-09-07T08:26:44;5.25;;;2.42;;
55031;SDS011;40928;51.076;7.950;2023-09-07T08:29:10;3.95;;;2.53;;
55031;SDS011;40928;51.076;7.950;2023-09-07T08:31:36;4.50;;;2.50;;
55031;SDS011;40928;51.076;7.950;2023-09-07T08:34:04;3.13;;;2.50;;
55031;SDS011;40928;51.076;7.950;2023-09-07T08:36:31;5.78;;;1.83;;
55031;SDS011;40928;51.076;7.950;2023-09-07T08:39:02;3.42;;;2.05;;
55031;SDS011;40928;51.076;7.950;2023-09-07T08:41:36;3.70;;;2.30;;
55031;SDS011;40928;51.076;7.950;2023-09-07T08:44:07;3.33;;;2.45;;
55031;SDS011;40928;51.076;7.950;2023-09-07T08:46:35;4.75;;;2.50;;
55031;SDS011;40928;51.076;7.950;2023-09-07T08:49:02;3.47;;;2.53;;
55031;SDS011;40928;51.076;7.950;2023-09-07T08:51:30;6.15;;;2.55;;
55031;SDS011;40928;51.076;7.950;2023-09-07T08:54:01;4.45;;;2.42;;
55031;SDS011;40928;51.076;7.950;2023-09-07T08:56:27;4.03;;;1.77;;
55031;SDS011;40928;51.076;7.950;2023-09-07T08:58:53;4.20;;;2.25;;
55031;SDS011;40928;51.076;7.950;2023-09-07T09:01:19;5.75;;;2.40;;
55031;SDS011;40928;51.076;7.950;2023-09-07T09:03:47;3.85;;;2.38;;
55031;SDS011;40928;51.076;7.950;2023-09-07T09:06:24;8.95;;;2.35;;
55031;SDS011;40928;51.076;7.950;2023-09-07T09:08:53;5.50;;;2.50;;
55031;SDS011;40928;51.076;7.950;2023-09-07T09:11:23;3.28;;;2.15;;
55031;SDS011;40928;51.076;7.950;2023-09-07T09:13:51;2.65;;;2.13;;
55031;SDS011;40928;51.076;7.950;2023-09-07T09:16:17;4.35;;;2.10;;
55031;SDS011;40928;51.076;7.950;2023-09-07T09:21:22;4.20;;;2.08;;
55031;SDS011;40928;51.076;7.950;2023-09-07T09:23:50;2.92;;;2.38;;
55031;SDS011;40928;51.076;7.950;2023-09-07T09:26:20;6.63;;;2.65;;
55031;SDS011;40928;51.076;7.950;2023-09-07T09:28:46;6.28;;;2.20;;
55031;SDS011;40928;51.076;7.950;2023-09-07T09:31:12;2.40;;;1.58;;
55031;SDS011;40928;51.076;7.950;2023-09-07T09:33:39;3.45;;;2.15;;
55031;SDS011;40928;51.076;7.950;2023-09-07T09:36:05;3.45;;;2.20;;
55031;SDS011;40928;51.076;7.950;2023-09-07T09:38:32;2.33;;;2.13;;
55031;SDS011;40928;51.076;7.950;2023-09-07T09:40:58;3.58;;;2.28;;
55031;SDS011;40928;51.076;7.950;2023-09-07T09:43:25;4.85;;;1.90;;
55031;SDS011;40928;51.076;7.950;2023-09-07T09:45:51;3.75;;;1.85;;
55031;SDS011;40928;51.076;7.950;2023-09-07T09:48:21;3.80;;;2.65;;
55031;SDS011;40928;51.076;7.950;2023-09-07T09:50:47;2.75;;;2.15;;
55031;SDS011;40928;51.076;7.950;2023-09-07T09:53:17;2.75;;;2.17;;
55031;SDS011;40928;51.076;7.950;2023-09-07T09:55:50;2.50;;;1.90;;
55031;SDS011;40928;51.076;7.950;2023-09-07T09:58:17;4.65;;;2.17;;
55031;SDS011;40928;51.076;7.950;2023-09-07T10:00:44;3.28;;;2.05;;
55031;SDS011;40928;51.076;7.950;2023-09-07T10:03:17;4.18;;;1.92;;
55031;SDS011;40928;51.076;7.950;2023-09-07T10:06:06;4.75;;;2.03;;
55031;SDS011;40928;51.076;7.950;2023-09-07T10:08:36;6.18;;;2.03;;
55031;SDS011;40928;51.076;7.950;2023-09-07T10:11:07;3.97;;;2.17;;
55031;SDS011;40928;51.076;7.950;2023-09-07T10:13:34;3.85;;;1.90;;
55031;SDS011;40928;51.076;7.950;2023-09-07T10:16:00;2.95;;;2.00;;
55031;SDS011;40928;51.076;7.950;2023-09-07T10:18:36;3.78;;;2.40;;
55031;SDS011;40928;51.076;7.950;2023-09-07T10:21:03;2.23;;;1.53;;
55031;SDS011;40928;51.076;7.950;2023-09-07T10:26:04;4.50;;;2.22;;
55031;SDS011;40928;51.076;7.950;2023-09-07T10:28:34;4.35;;;2.22;;
55031;SDS011;40928;51.076;7.950;2023-09-07T10:31:07;2.17;;;1.80;;
55031;SDS011;40928;51.076;7.950;2023-09-07T10:33:39;3.10;;;1.95;;
55031;SDS011;40928;51.076;7.950;2023-09-07T10:36:04;2.00;;;1.67;;
55031;SDS011;40928;51.076;7.950;2023-09-07T10:38:34;2.70;;;2.08;;
55031;SDS011;40928;51.076;7.950;2023-09-07T10:41:01;3.38;;;1.83;;
55031;SDS011;40928;51.076;7.950;2023-09-07T10:43:30;4.65;;;1.98;;
55031;SDS011;40928;51.076;7.950;2023-09-07T10:45:57;2.63;;;1.80;;
55031;SDS011;40928;51.076;7.950;2023-09-07T10:48:25;2.90;;;2.13;;
55031;SDS011;40928;51.076;7.950;2023-09-07T10:50:53;3.03;;;2.05;;
55031;SDS011;40928;51.076;7.950;2023-09-07T10:53:32;3.75;;;2.10;;
55031;SDS011;40928;51.076;7.950;2023-09-07T10:55:58;2.33;;;1.88;;
55031;SDS011;40928;51.076;7.950;2023-09-07T11:00:55;2.30;;;1.80;;
55031;SDS011;40928;51.076;7.950;2023-09-07T11:03:21;2.92;;;1.90;;
55031;SDS011;40928;51.076;7.950;2023-09-07T11:05:47;3.30;;;1.90;;
55031;SDS011;40928;51.076;7.950;2023-09-07T11:08:13;2.42;;;2.10;;
55031;SDS011;40928;51.076;7.950;2023-09-07T11:10:39;2.55;;;1.92;;
55031;SDS011;40928;51.076;7.950;2023-09-07T11:13:05;3.10;;;2.20;;
55031;SDS011;40928;51.076;7.950;2023-09-07T11:15:32;3.72;;;1.92;;
55031;SDS011;40928;51.076;7.950;2023-09-07T11:18:03;2.63;;;1.90;;
55031;SDS011;40928;51.076;7.950;2023-09-07T11:20:32;3.38;;;2.08;;
55031;SDS011;40928;51.076;7.950;2023-09-07T11:22:59;2.58;;;1.92;;
55031;SDS011;40928;51.076;7.950;2023-09-07T11:25:25;3.05;;;1.90;;
55031;SDS011;40928;51.076;7.950;2023-09-07T11:27:51;2.40;;;1.70;;
55031;SDS011;40928;51.076;7.950;2023-09-07T11:30:22;2.28;;;1.98;;
55031;SDS011;40928;51.076;7.950;2023-09-07T11:32:49;3.15;;;2.10;;
55031;SDS011;40928;51.076;7.950;2023-09-07T11:35:14;2.22;;;1.98;;
55031;SDS011;40928;51.076;7.950;2023-09-07T11:37:40;2.35;;;2.00;;
55031;SDS011;40928;51.076;7.950;2023-09-07T11:40:06;2.70;;;2.00;;
55031;SDS011;40928;51.076;7.950;2023-09-07T11:42:37;3.28;;;2.15;;
55031;SDS011;40928;51.076;7.950;2023-09-07T11:45:05;4.07;;;1.55;;
55031;SDS011;40928;51.076;7.950;2023-09-07T11:47:31;2.72;;;1.90;;
55031;SDS011;40928;51.076;7.950;2023-09-07T11:49:57;3.50;;;1.83;;
55031;SDS011;40928;51.076;7.950;2023-09-07T11:52:23;2.70;;;1.90;;
55031;SDS011;40928;51.076;7.950;2023-09-07T11:54:48;2.25;;;2.05;;
55031;SDS011;40928;51.076;7.950;2023-09-07T11:57:14;2.72;;;1.83;;
55031;SDS011;40928;51.076;7.950;2023-09-07T11:59:41;3.10;;;1.80;;
55031;SDS011;40928;51.076;7.950;2023-09-07T12:02:06;6.47;;;1.80;;
55031;SDS011;40928;51.076;7.950;2023-09-07T12:04:32;3.42;;;2.00;;
55031;SDS011;40928;51.076;7.950;2023-09-07T12:06:58;3.97;;;1.70;;
55031;SDS011;40928;51.076;7.950;2023-09-07T12:09:24;2.47;;;2.00;;
55031;SDS011;40928;51.076;7.950;2023-09-07T12:11:49;3.25;;;2.03;;
55031;SDS011;40928;51.076;7.950;2023-09-07T12:14:15;2.65;;;1.80;;
55031;SDS011;40928;51.076;7.950;2023-09-07T12:16:40;2.85;;;1.80;;
55031;SDS011;40928;51.076;7.950;2023-09-07T12:19:06;2.45;;;2.10;;
55031;SDS011;40928;51.076;7.950;2023-09-07T12:21:32;6.93;;;2.53;;
55031;SDS011;40928;51.076;7.950;2023-09-07T12:23:57;2.22;;;2.03;;
55031;SDS011;40928;51.076;7.950;2023-09-07T12:26:23;3.17;;;2.08;;
55031;SDS011;40928;51.076;7.950;2023-09-07T12:28:48;2.97;;;2.20;;
55031;SDS011;40928;51.076;7.950;2023-09-07T12:31:14;3.53;;;2.03;;
55031;SDS011;40928;51.076;7.950;2023-09-07T12:33:40;2.60;;;1.92;;
55031;SDS011;40928;51.076;7.950;2023-09-07T12:36:05;2.15;;;1.85;;
55031;SDS011;40928;51.076;7.950;2023-09-07T12:38:34;7.03;;;2.00;;
55031;SDS011;40928;51.076;7.950;2023-09-07T12:41:00;3.67;;;2.15;;
55031;SDS011;40928;51.076;7.950;2023-09-07T12:43:25;3.08;;;2.10;;
55031;SDS011;40928;51.076;7.950;2023-09-07T12:45:51;2.25;;;2.05;;
55031;SDS011;40928;51.076;7.950;2023-09-07T12:48:16;3.53;;;2.17;;
55031;SDS011;40928;51.076;7.950;2023-09-07T12:50:42;2.72;;;2.10;;
55031;SDS011;40928;51.076;7.950;2023-09-07T12:53:08;3.72;;;2.10;;
55031;SDS011;40928;51.076;7.950;2023-09-07T12:55:34;2.72;;;2.05;;
55031;SDS011;40928;51.076;7.950;2023-09-07T12:57:59;4.20;;;2.10;;
55031;SDS011;40928;51.076;7.950;2023-09-07T13:00:25;4.90;;;2.10;;
55031;SDS011;40928;51.076;7.950;2023-09-07T13:02:51;3.10;;;1.73;;
55031;SDS011;40928;51.076;7.950;2023-09-07T13:05:18;2.55;;;1.77;;
55031;SDS011;40928;51.076;7.950;2023-09-07T13:07:45;2.60;;;1.90;;
55031;SDS011;40928;51.076;7.950;2023-09-07T13:10:11;5.57;;;2.10;;
55031;SDS011;40928;51.076;7.950;2023-09-07T13:12:37;6.57;;;2.05;;
55031;SDS011;40928;51.076;7.950;2023-09-07T13:15:03;3.55;;;2.25;;
55031;SDS011;40928;51.076;7.950;2023-09-07T13:17:30;2.28;;;1.88;;
55031;SDS011;40928;51.076;7.950;2023-09-07T13:19:56;2.60;;;2.03;;
55031;SDS011;40928;51.076;7.950;2023-09-07T13:22:21;6.60;;;2.15;;
55031;SDS011;40928;51.076;7.950;2023-09-07T13:24:47;6.63;;;2.28;;
55031;SDS011;40928;51.076;7.950;2023-09-07T13:27:12;3.03;;;2.10;;
55031;SDS011;40928;51.076;7.950;2023-09-07T13:29:38;8.07;;;2.25;;
55031;SDS011;40928;51.076;7.950;2023-09-07T13:32:03;10.10;;;2.47;;
55031;SDS011;40928;51.076;7.950;2023-09-07T13:34:29;5.25;;;2.10;;
55031;SDS011;40928;51.076;7.950;2023-09-07T13:36:55;5.38;;;1.80;;
55031;SDS011;40928;51.076;7.950;2023-09-07T13:39:21;2.05;;;1.63;;
55031;SDS011;40928;51.076;7.950;2023-09-07T13:41:47;3.75;;;2.10;;
55031;SDS011;40928;51.076;7.950;2023-09-07T13:44:16;3.90;;;2.10;;
55031;SDS011;40928;51.076;7.950;2023-09-07T13:46:43;5.35;;;1.67;;
55031;SDS011;40928;51.076;7.950;2023-09-07T13:49:09;3.10;;;1.75;;
55031;SDS011;40928;51.076;7.950;2023-09-07T13:51:35;3.05;;;2.22;;
55031;SDS011;40928;51.076;7.950;2023-09-07T13:54:04;3.22;;;2.08;;
55031;SDS011;40928;51.076;7.950;2023-09-07T13:56:30;5.97;;;1.83;;
55031;SDS011;40928;51.076;7.950;2023-09-07T13:58:56;4.10;;;2.20;;
55031;SDS011;40928;51.076;7.950;2023-09-07T14:01:21;3.17;;;2.05;;
55031;SDS011;40928;51.076;7.950;2023-09-07T14:03:48;4.43;;;2.00;;
55031;SDS011;40928;51.076;7.950;2023-09-07T14:06:14;3.85;;;2.03;;
55031;SDS011;40928;51.076;7.950;2023-09-07T14:08:39;3.45;;;2.03;;
55031;SDS011;40928;51.076;7.950;2023-09-07T14:11:05;2.92;;;1.83;;
55031;SDS011;40928;51.076;7.950;2023-09-07T14:13:31;2.40;;;2.00;;
55031;SDS011;40928;51.076;7.950;2023-09-07T14:15:59;4.43;;;2.33;;
55031;SDS011;40928;51.076;7.950;2023-09-07T14:18:25;2.78;;;1.80;;
55031;SDS011;40928;51.076;7.950;2023-09-07T14:20:50;3.22;;;2.15;;
55031;SDS011;40928;51.076;7.950;2023-09-07T14:23:17;2.95;;;1.73;;
55031;SDS011;40928;51.076;7.950;2023-09-07T14:25:46;3.22;;;1.70;;
55031;SDS011;40928;51.076;7.950;2023-09-07T14:28:12;2.75;;;1.90;;
55031;SDS011;40928;51.076;7.950;2023-09-07T14:30:39;3.83;;;2.53;;
55031;SDS011;40928;51.076;7.950;2023-09-07T14:33:04;2.67;;;1.80;;
55031;SDS011;40928;51.076;7.950;2023-09-07T14:35:30;2.80;;;1.95;;
55031;SDS011;40928;51.076;7.950;2023-09-07T14:37:56;3.50;;;1.90;;
55031;SDS011;40928;51.076;7.950;2023-09-07T14:40:22;3.42;;;1.88;;
55031;SDS011;40928;51.076;7.950;2023-09-07T14:42:49;3.60;;;1.80;;
55031;SDS011;40928;51.076;7.950;2023-09-07T14:45:15;3.35;;;2.20;;
55031;SDS011;40928;51.076;7.950;2023-09-07T14:47:41;3.42;;;1.98;;
55031;SDS011;40928;51.076;7.950;2023-09-07T14:50:07;5.72;;;2.38;;